createdAt,value
2023-02-21T00:32:25.799Z,88840.00
2023-02-21T00:33:25.770Z,88838.00
2023-02-21T00:34:25.800Z,88836.00
2023-02-21T00:35:25.716Z,88840.00
2023-02-21T00:36:25.716Z,88836.00
2023-02-21T00:37:25.703Z,88838.00
2023-02-21T00:38:26.655Z,88838.00
2023-02-21T00:39:25.691Z,88836.00
2023-02-21T00:40:25.651Z,88838.00
2023-02-21T00:41:25.623Z,88838.00
2023-02-21T00:42:25.630Z,88840.00
2023-02-21T00:43:25.603Z,88844.00
2023-02-21T00:44:25.593Z,88844.00
2023-02-21T00:45:25.564Z,88844.00
2023-02-21T00:46:25.554Z,88844.00
2023-02-21T00:47:25.532Z,88844.00
2023-02-21T00:48:25.527Z,88845.00
2023-02-21T00:49:25.530Z,88844.00
2023-02-21T00:50:25.500Z,88842.00
2023-02-21T00:51:25.503Z,88845.00
2023-02-21T00:52:25.466Z,88842.00
2023-02-21T00:53:25.474Z,88842.00
2023-02-21T00:54:25.470Z,88840.00
2023-02-21T00:55:25.446Z,88840.00
2023-02-21T00:56:25.422Z,88840.00
2023-02-21T00:57:25.416Z,88838.00
2023-02-21T00:58:25.420Z,88838.00
2023-02-21T00:59:25.390Z,88836.00
2023-02-21T01:00:25.360Z,88838.00
2023-02-21T01:01:25.395Z,88840.00
2023-02-21T01:02:25.335Z,88840.00
2023-02-21T01:03:25.317Z,88838.00
2023-02-21T01:04:25.330Z,88840.00
2023-02-21T01:05:25.273Z,88838.00
2023-02-21T01:06:25.263Z,88836.00
2023-02-21T01:07:25.252Z,88836.00
2023-02-21T01:08:25.233Z,88836.00
2023-02-21T01:09:25.244Z,88836.00
2023-02-21T01:10:25.198Z,88836.00
2023-02-21T01:11:25.206Z,88834.00
2023-02-21T01:12:25.197Z,88834.00
2023-02-21T01:13:25.177Z,88832.00
2023-02-21T01:14:26.827Z,88832.00
2023-02-21T01:15:25.151Z,88830.00
2023-02-21T01:16:25.118Z,88828.00
2023-02-21T01:17:25.108Z,88830.00
2023-02-21T01:18:25.106Z,88826.00
2023-02-21T01:19:25.114Z,88830.00
2023-02-21T01:20:25.117Z,88822.00
2023-02-21T01:21:25.051Z,88822.00
2023-02-21T01:22:25.049Z,88820.00
2023-02-21T01:23:25.036Z,88820.00
2023-02-21T01:24:25.039Z,88824.00
2023-02-21T01:25:25.038Z,88820.00
2023-02-21T01:26:24.994Z,88820.00
2023-02-21T01:27:24.976Z,88820.00
2023-02-21T01:28:24.959Z,88814.00
2023-02-21T01:29:24.960Z,88814.00
2023-02-21T01:30:25.024Z,88816.00
2023-02-21T01:31:24.968Z,88812.00
2023-02-21T01:32:24.950Z,88816.00
2023-02-21T01:33:24.896Z,88816.00
2023-02-21T01:34:24.854Z,88814.00
2023-02-21T01:35:24.862Z,88812.00
2023-02-21T01:36:24.857Z,88808.00
2023-02-21T01:37:24.840Z,88810.00
2023-02-21T01:38:24.819Z,88810.00
2023-02-21T01:39:24.812Z,88810.00
2023-02-21T01:40:24.824Z,88806.00
2023-02-21T01:41:24.799Z,88808.00
2023-02-21T01:42:24.795Z,88808.00
2023-02-21T01:43:24.748Z,88808.00
2023-02-21T01:44:24.746Z,88808.00
2023-02-21T01:45:24.755Z,88806.00
2023-02-21T01:46:24.751Z,88804.00
2023-02-21T01:47:24.694Z,88802.00
2023-02-21T01:48:24.690Z,88800.00
2023-02-21T01:49:24.659Z,88800.00
2023-02-21T01:50:24.646Z,88798.00
2023-02-21T01:51:24.615Z,88796.00
2023-02-21T01:52:24.592Z,88796.00
2023-02-21T01:53:24.580Z,88792.00
2023-02-21T01:54:24.553Z,88792.00
2023-02-21T01:55:24.549Z,88792.00
2023-02-21T01:56:24.515Z,88792.00
2023-02-21T01:57:24.513Z,88792.00
2023-02-21T01:58:24.485Z,88790.00
2023-02-21T01:59:24.458Z,88792.00
2023-02-21T02:00:24.445Z,88792.00
2023-02-21T02:01:24.413Z,88792.00
2023-02-21T02:02:24.413Z,88792.00
2023-02-21T02:03:24.372Z,88790.00
2023-02-21T02:04:24.388Z,88789.00
2023-02-21T02:05:24.347Z,88787.00
2023-02-21T02:06:24.357Z,88787.00
2023-02-21T02:07:24.307Z,88787.00
2023-02-21T02:08:24.282Z,88785.00
2023-02-21T02:09:24.279Z,88785.00
2023-02-21T02:10:24.292Z,88781.00
2023-02-21T02:11:24.229Z,88779.00
2023-02-21T02:12:24.214Z,88779.00
2023-02-21T02:13:24.225Z,88779.00
2023-02-21T02:14:24.178Z,88777.00
2023-02-21T02:15:24.189Z,88777.00
2023-02-21T02:16:24.142Z,88773.00
2023-02-21T02:17:24.127Z,88771.00
2023-02-21T02:18:24.119Z,88773.00
2023-02-21T02:19:24.151Z,88773.00
2023-02-21T02:20:24.080Z,88771.00
2023-02-21T02:21:24.059Z,88771.00
2023-02-21T02:22:24.048Z,88765.00
2023-02-21T02:23:24.008Z,88767.00
2023-02-21T02:24:23.986Z,88765.00
2023-02-21T02:25:24.001Z,88765.00
2023-02-21T02:26:23.950Z,88767.00
2023-02-21T02:27:23.954Z,88769.00
2023-02-21T02:28:23.910Z,88765.00
2023-02-21T02:29:23.888Z,88765.00
2023-02-21T02:30:23.905Z,88765.00
2023-02-21T02:31:23.936Z,88763.00
2023-02-21T02:32:23.846Z,88763.00
2023-02-21T02:33:23.819Z,88761.00
2023-02-21T02:34:23.783Z,88759.00
2023-02-21T02:35:23.792Z,88761.00
2023-02-21T02:36:23.778Z,88761.00
2023-02-21T02:37:23.767Z,88757.00
2023-02-21T02:38:23.712Z,88757.00
2023-02-21T02:39:23.678Z,88757.00
2023-02-21T02:40:23.673Z,88744.00
2023-02-21T02:41:23.650Z,88744.00
2023-02-21T02:42:23.636Z,88742.00
2023-02-21T02:43:23.604Z,88751.00
2023-02-21T02:44:23.610Z,88751.00
2023-02-21T02:45:23.579Z,88744.00
2023-02-21T02:46:23.631Z,88740.00
2023-02-21T02:47:23.579Z,88740.00
2023-02-21T02:48:23.541Z,88740.00
2023-02-21T02:49:23.550Z,88738.00
2023-02-21T02:50:23.508Z,88742.00
2023-02-21T02:51:23.514Z,88738.00
2023-02-21T02:52:23.480Z,88740.00
2023-02-21T02:53:23.492Z,88736.00
2023-02-21T02:54:23.469Z,88736.00
2023-02-21T02:55:23.458Z,88740.00
2023-02-21T02:56:23.476Z,88734.00
2023-02-21T02:57:23.470Z,88734.00
2023-02-21T02:58:23.431Z,88734.00
2023-02-21T02:59:23.438Z,88734.00
2023-02-21T03:00:23.413Z,88732.00
2023-02-21T03:01:23.463Z,88730.00
2023-02-21T03:02:23.409Z,88732.00
2023-02-21T03:03:23.499Z,88732.00
2023-02-21T03:04:23.380Z,88732.00
2023-02-21T03:05:23.565Z,88728.00
2023-02-21T03:06:23.387Z,88728.00
2023-02-21T03:07:23.360Z,88728.00
2023-02-21T03:08:23.328Z,88724.00
2023-02-21T03:09:23.335Z,88722.00
2023-02-21T03:10:23.315Z,88724.00
2023-02-21T03:11:23.319Z,88721.00
2023-02-21T03:12:23.290Z,88721.00
2023-02-21T03:13:23.261Z,88719.00
2023-02-21T03:14:23.249Z,88717.00
2023-02-21T03:15:23.231Z,88717.00
2023-02-21T03:16:23.309Z,88717.00
2023-02-21T03:17:23.206Z,88715.00
2023-02-21T03:18:23.174Z,88719.00
2023-02-21T03:19:23.170Z,88717.00
2023-02-21T03:20:23.166Z,88719.00
2023-02-21T03:21:23.142Z,88715.00
2023-02-21T03:22:23.146Z,88713.00
2023-02-21T03:23:23.105Z,88713.00
2023-02-21T03:24:23.095Z,88713.00
2023-02-21T03:25:23.087Z,88713.00
2023-02-21T03:26:23.090Z,88713.00
2023-02-21T03:27:23.092Z,88713.00
2023-02-21T03:28:23.060Z,88709.00
2023-02-21T03:29:23.069Z,88709.00
2023-02-21T03:30:23.106Z,88709.00
2023-02-21T03:31:23.047Z,88709.00
2023-02-21T03:32:23.089Z,88705.00
2023-02-21T03:33:22.999Z,88707.00
2023-02-21T03:34:22.982Z,88705.00
2023-02-21T03:35:22.985Z,88705.00
2023-02-21T03:36:22.977Z,88703.00
2023-02-21T03:37:22.962Z,88703.00
2023-02-21T03:38:22.940Z,88705.00
2023-02-21T03:39:22.912Z,88703.00
2023-02-21T03:40:22.897Z,88703.00
2023-02-21T03:41:22.901Z,88701.00
2023-02-21T03:42:22.894Z,88699.00
2023-02-21T03:43:22.864Z,88699.00
2023-02-21T03:44:22.868Z,88699.00
2023-02-21T03:45:22.854Z,88699.00
2023-02-21T03:46:22.870Z,88697.00
2023-02-21T03:47:22.853Z,88695.00
2023-02-21T03:48:31.311Z,88697.00
2023-02-21T03:49:23.795Z,88697.00
2023-02-21T03:50:22.807Z,88697.00
2023-02-21T03:51:22.803Z,88697.00
2023-02-21T03:52:22.792Z,88695.00
2023-02-21T03:53:22.800Z,88697.00
2023-02-21T03:54:22.783Z,88697.00
2023-02-21T03:55:22.750Z,88697.00
2023-02-21T03:56:26.122Z,88697.00
2023-02-21T03:57:23.771Z,88695.00
2023-02-21T03:58:22.741Z,88693.00
2023-02-21T03:59:22.778Z,88691.00
2023-02-21T04:00:22.728Z,88691.00
2023-02-21T04:01:22.786Z,88689.00
2023-02-21T04:02:22.769Z,88689.00
2023-02-21T04:03:22.725Z,88689.00
2023-02-21T04:04:22.708Z,88687.00
2023-02-21T04:05:22.697Z,88687.00
2023-02-21T04:06:22.703Z,88687.00
2023-02-21T04:07:22.728Z,88687.00
2023-02-21T04:08:22.679Z,88685.00
2023-02-21T04:09:22.640Z,88687.00
2023-02-21T04:10:22.644Z,88687.00
2023-02-21T04:11:22.618Z,88687.00
2023-02-21T04:12:22.626Z,88683.00
2023-02-21T04:13:22.574Z,88683.00
2023-02-21T04:14:22.587Z,88683.00
2023-02-21T04:15:22.597Z,88683.00
2023-02-21T04:16:22.572Z,88685.00
2023-02-21T04:17:22.554Z,88679.00
2023-02-21T04:18:22.558Z,88681.00
2023-02-21T04:19:22.509Z,88683.00
2023-02-21T04:20:22.539Z,88681.00
2023-02-21T04:21:22.496Z,88681.00
2023-02-21T04:22:22.527Z,88683.00
2023-02-21T04:23:22.469Z,88683.00
2023-02-21T04:24:22.453Z,88681.00
2023-02-21T04:25:22.444Z,88679.00
2023-02-21T04:26:22.450Z,88679.00
2023-02-21T04:27:22.405Z,88677.00
2023-02-21T04:28:22.416Z,88675.00
2023-02-21T04:29:22.405Z,88672.00
2023-02-21T04:30:22.372Z,88672.00
2023-02-21T04:31:22.371Z,88670.00
2023-02-21T04:32:22.579Z,88670.00
2023-02-21T04:33:22.359Z,88668.00
2023-02-21T04:34:22.331Z,88666.00
2023-02-21T04:35:22.333Z,88664.00
2023-02-21T04:36:22.303Z,88666.00
2023-02-21T04:37:22.305Z,88666.00
2023-02-21T04:38:22.301Z,88666.00
2023-02-21T04:39:22.270Z,88666.00
2023-02-21T04:40:22.239Z,88664.00
2023-02-21T04:41:22.215Z,88662.00
2023-02-21T04:42:22.227Z,88658.00
2023-02-21T04:43:22.223Z,88658.00
2023-02-21T04:44:22.221Z,88656.00
2023-02-21T04:45:22.219Z,88650.00
2023-02-21T04:46:22.207Z,88652.00
2023-02-21T04:47:22.165Z,88648.00
2023-02-21T05:32:46.493Z,88636.00
2023-02-21T05:37:21.911Z,88634.00
2023-02-21T05:38:21.912Z,88632.00
2023-02-21T05:39:21.927Z,88642.00
2023-02-21T05:40:21.930Z,88640.00
2023-02-21T05:41:21.897Z,88636.00
2023-02-21T05:42:21.894Z,88636.00
2023-02-21T05:43:21.888Z,88638.00
2023-02-21T05:44:21.884Z,88638.00
2023-02-21T05:45:21.878Z,88640.00
2023-02-21T05:46:21.932Z,88640.00
2023-02-21T05:47:21.866Z,88638.00
2023-02-21T05:48:21.869Z,88636.00
2023-02-21T05:49:21.887Z,88638.00
2023-02-21T05:50:21.867Z,88640.00
2023-02-21T05:51:21.872Z,88638.00
2023-02-21T05:52:21.842Z,88638.00
2023-02-21T05:53:21.847Z,88642.00
2023-02-21T05:54:21.823Z,88642.00
2023-02-21T05:55:21.820Z,88644.00
2023-02-21T05:56:21.828Z,88642.00
2023-02-21T05:57:21.834Z,88644.00
2023-02-21T05:58:21.793Z,88642.00
2023-02-21T05:59:21.821Z,88644.00
2023-02-21T06:00:21.778Z,88644.00
2023-02-21T06:01:21.780Z,88646.00
2023-02-21T06:02:21.808Z,88646.00
2023-02-21T06:03:21.822Z,88648.00
2023-02-21T06:04:21.768Z,88648.00
2023-02-21T06:05:21.762Z,88650.00
2023-02-21T06:06:21.764Z,88652.00
2023-02-21T06:07:21.747Z,88658.00
2023-02-21T06:08:21.741Z,88656.00
2023-02-21T06:09:21.750Z,88660.00
2023-02-21T06:10:21.755Z,88664.00
2023-02-21T06:11:21.739Z,88666.00
2023-02-21T06:12:21.734Z,88664.00
2023-02-21T06:13:21.724Z,88668.00
2023-02-21T06:14:21.716Z,88670.00
2023-02-21T06:15:21.753Z,88670.00
2023-02-21T06:16:21.702Z,88672.00
2023-02-21T06:17:21.719Z,88674.00
2023-02-21T06:18:21.693Z,88675.00
2023-02-21T06:19:21.684Z,88677.00
2023-02-21T06:20:21.699Z,88679.00
2023-02-21T06:21:21.699Z,88679.00
2023-02-21T06:22:21.670Z,88681.00
2023-02-21T06:23:21.668Z,88681.00
2023-02-21T06:24:21.694Z,88683.00
2023-02-21T06:25:21.704Z,88683.00
2023-02-21T06:26:21.676Z,88685.00
2023-02-21T06:27:21.646Z,88683.00
2023-02-21T06:28:21.670Z,88685.00
2023-02-21T06:29:21.682Z,88689.00
2023-02-21T06:30:23.172Z,88689.00
2023-02-21T06:31:21.688Z,88691.00
2023-02-21T06:32:21.667Z,88689.00
2023-02-21T06:33:21.667Z,88687.00
2023-02-21T06:34:21.645Z,88689.00
2023-02-21T06:35:21.799Z,88691.00
2023-02-21T06:36:21.652Z,88693.00
2023-02-21T06:37:21.652Z,88699.00
2023-02-21T06:38:21.651Z,88699.00
2023-02-21T06:39:21.652Z,88701.00
2023-02-21T06:40:21.655Z,88699.00
2023-02-21T06:41:21.646Z,88699.00
2023-02-21T06:42:21.689Z,88703.00
2023-02-21T06:43:21.642Z,88705.00
2023-02-21T06:44:21.630Z,88713.00
2023-02-21T06:45:21.659Z,88707.00
2023-02-21T06:46:21.629Z,88707.00
2023-02-21T06:47:21.643Z,88707.00
2023-02-21T06:48:21.644Z,88709.00
2023-02-21T06:49:21.597Z,88707.00
2023-02-21T06:50:21.612Z,88709.00
2023-02-21T06:51:21.592Z,88713.00
2023-02-21T06:52:21.615Z,88713.00
2023-02-21T06:53:21.605Z,88707.00
2023-02-21T06:54:21.576Z,88709.00
2023-02-21T06:55:23.089Z,88713.00
2023-02-21T06:56:21.588Z,88713.00
2023-02-21T06:57:21.538Z,88713.00
2023-02-21T06:58:21.538Z,88719.00
2023-02-21T06:59:21.520Z,88717.00
2023-02-21T07:00:21.519Z,88717.00
2023-02-21T07:01:21.517Z,88722.00
2023-02-21T07:02:21.603Z,88722.00
2023-02-21T07:03:21.457Z,88721.00
2023-02-21T07:04:21.538Z,88721.00
2023-02-21T07:05:21.459Z,88721.00
2023-02-21T07:06:21.623Z,88722.00
2023-02-21T07:07:21.421Z,88722.00
2023-02-21T07:08:21.410Z,88728.00
2023-02-21T07:09:21.418Z,88728.00
2023-02-21T07:10:21.410Z,88730.00
2023-02-21T07:11:21.441Z,88730.00
2023-02-21T07:12:21.384Z,88732.00
2023-02-21T07:13:22.584Z,88730.00
2023-02-21T07:14:21.331Z,88728.00
2023-02-21T07:15:21.314Z,88726.00
2023-02-21T07:16:21.321Z,88730.00
2023-02-21T07:17:21.261Z,88728.00
2023-02-21T07:18:21.268Z,88728.00
2023-02-21T07:19:21.292Z,88730.00
2023-02-21T07:20:21.245Z,88730.00
2023-02-21T07:21:21.222Z,88732.00
2023-02-21T07:22:21.175Z,88730.00
2023-02-21T07:23:21.151Z,88730.00
2023-02-21T07:24:21.170Z,88728.00
2023-02-21T07:25:21.135Z,88728.00
2023-02-21T07:26:21.132Z,88728.00
2023-02-21T07:27:21.108Z,88724.00
2023-02-21T07:28:21.071Z,88728.00
2023-02-21T07:29:21.077Z,88724.00
2023-02-21T07:30:21.065Z,88724.00
2023-02-21T07:31:21.425Z,88724.00
2023-02-21T07:32:21.002Z,88724.00
2023-02-21T07:33:20.964Z,88726.00
2023-02-21T09:08:20.207Z,88677.00
2023-02-21T09:09:20.147Z,88674.00
2023-02-21T09:10:20.137Z,88677.00
2023-02-21T09:11:20.104Z,88675.00
2023-02-21T09:12:20.109Z,88677.00
2023-02-21T09:13:20.132Z,88679.00
2023-02-21T09:14:20.078Z,88677.00
2023-02-21T09:15:20.082Z,88677.00
2023-02-21T09:16:20.124Z,88675.00
2023-02-21T09:17:20.040Z,88677.00
2023-02-21T09:18:20.096Z,88675.00
2023-02-21T09:19:19.998Z,88674.00
2023-02-21T09:20:20.002Z,88674.00
2023-02-21T09:21:19.953Z,88674.00
2023-02-21T09:22:19.916Z,88674.00
2023-02-21T09:23:19.911Z,88670.00
2023-02-21T09:24:19.896Z,88668.00
2023-02-21T09:25:19.878Z,88670.00
2023-02-21T09:26:19.919Z,88666.00
2023-02-21T09:27:19.823Z,88668.00
2023-02-21T09:28:19.849Z,88664.00
2023-02-21T09:29:19.827Z,88666.00
2023-02-21T09:30:19.857Z,88664.00
2023-02-21T09:31:19.793Z,88662.00
2023-02-21T09:32:19.732Z,88664.00
2023-02-21T09:33:19.692Z,88660.00
2023-02-21T09:34:19.721Z,88658.00
2023-02-21T09:35:19.680Z,88658.00
2023-02-21T09:36:19.639Z,88658.00
2023-02-21T09:37:19.634Z,88654.00
2023-02-21T09:38:19.605Z,88656.00
2023-02-21T09:39:19.606Z,88654.00
2023-02-21T09:40:19.591Z,88656.00
2023-02-21T09:41:19.555Z,88652.00
2023-02-21T09:42:19.541Z,88654.00
2023-02-21T09:43:19.519Z,88652.00
2023-02-21T09:44:19.487Z,88652.00
2023-02-21T09:45:19.484Z,88654.00
2023-02-21T09:46:19.467Z,88652.00
2023-02-21T09:47:19.431Z,88648.00
2023-02-21T09:48:19.419Z,88648.00
2023-02-21T09:49:19.417Z,88648.00
2023-02-21T09:50:19.380Z,88648.00
2023-02-21T09:51:19.381Z,88648.00
2023-02-21T09:52:19.343Z,88646.00
2023-02-21T09:53:19.329Z,88650.00
2023-02-21T09:54:19.353Z,88644.00
2023-02-21T09:55:19.342Z,88640.00
2023-02-21T09:56:19.350Z,88644.00
2023-02-21T09:57:19.309Z,88640.00
2023-02-21T09:58:19.265Z,88640.00
2023-02-21T09:59:19.268Z,88638.00
2023-02-21T10:00:19.291Z,88638.00
2023-02-21T10:01:19.279Z,88640.00
2023-02-21T10:02:19.231Z,88638.00
2023-02-21T10:03:19.206Z,88638.00
2023-02-21T10:04:19.221Z,88640.00
2023-02-21T10:05:19.236Z,88638.00
2023-02-21T10:06:19.162Z,88638.00
2023-02-21T10:07:19.158Z,88636.00
2023-02-21T10:08:19.166Z,88634.00
2023-02-21T10:09:19.125Z,88638.00
2023-02-21T10:10:19.150Z,88632.00
2023-02-21T10:11:21.252Z,88630.00
2023-02-21T10:12:19.504Z,88630.00
2023-02-21T10:13:19.270Z,88630.00
2023-02-21T10:14:19.181Z,88632.00
2023-02-21T10:15:19.011Z,88630.00
2023-02-21T10:16:19.062Z,88628.00
2023-02-21T10:17:19.007Z,88630.00
2023-02-21T10:18:19.646Z,88632.00
2023-02-21T10:19:18.941Z,88626.00
2023-02-21T10:20:18.945Z,88630.00
2023-02-21T10:21:18.908Z,88626.00
2023-02-21T10:22:18.908Z,88624.00
2023-02-21T10:23:18.911Z,88626.00
2023-02-21T10:24:18.914Z,88626.00
2023-02-21T10:25:18.915Z,88624.00
2023-02-21T10:26:18.883Z,88622.00
2023-02-21T10:27:18.906Z,88620.00
2023-02-21T10:28:18.808Z,88622.00
2023-02-21T10:29:18.921Z,88620.00
2023-02-21T10:30:20.033Z,88619.00
2023-02-21T10:31:21.444Z,88619.00
2023-02-21T10:32:20.844Z,88619.00
2023-02-21T10:33:20.643Z,88619.00
2023-02-21T10:34:19.578Z,88617.00
2023-02-21T10:35:19.930Z,88619.00
2023-02-21T10:36:22.082Z,88615.00
2023-02-21T10:37:20.884Z,88615.00
2023-02-21T10:38:18.925Z,88613.00
2023-02-21T10:39:19.745Z,88611.00
2023-02-21T10:40:19.621Z,88609.00
2023-02-21T10:41:20.511Z,88611.00
2023-02-21T10:42:19.179Z,88611.00
2023-02-21T10:43:18.751Z,88611.00
2023-02-21T10:44:18.706Z,88609.00
2023-02-21T10:45:18.736Z,88609.00
2023-02-21T10:46:18.804Z,88605.00
2023-02-21T10:47:18.617Z,88605.00
2023-02-21T10:48:18.644Z,88607.00
2023-02-21T10:49:18.661Z,88605.00
2023-02-21T10:50:18.728Z,88601.00
2023-02-21T10:51:19.388Z,88599.00
2023-02-21T10:52:19.879Z,88597.00
2023-02-21T10:53:19.608Z,88597.00
2023-02-21T10:54:25.163Z,88597.00
2023-02-21T10:55:32.184Z,88593.00
2023-02-21T10:56:37.113Z,88595.00
2023-02-21T10:57:24.746Z,88595.00
2023-02-21T10:58:28.525Z,88591.00
2023-02-21T10:59:26.985Z,88591.00
2023-02-21T11:00:30.719Z,88589.00
2023-02-21T11:01:21.178Z,88587.00
2023-02-21T11:03:20.978Z,88587.00
2023-02-21T11:04:22.247Z,88585.00
2023-02-21T11:05:20.882Z,88583.00
2023-02-21T11:06:19.687Z,88583.00
2023-02-21T11:07:20.928Z,88581.00
2023-02-21T11:08:21.231Z,88579.00
2023-02-21T11:09:21.642Z,88579.00
2023-02-21T11:10:22.696Z,88575.00
2023-02-21T11:11:20.987Z,88573.00
2023-02-21T11:12:23.635Z,88577.00
2023-02-21T11:13:21.811Z,88573.00
2023-02-21T11:14:24.307Z,88572.00
2023-02-21T11:15:23.557Z,88573.00
2023-02-21T11:16:19.363Z,88568.00
2023-02-21T11:17:23.312Z,88568.00
2023-02-21T11:18:20.597Z,88566.00
2023-02-21T11:19:20.985Z,88566.00
2023-02-21T11:20:20.089Z,88566.00
2023-02-21T11:21:20.153Z,88564.00
2023-02-21T11:22:21.646Z,88562.00
2023-02-21T11:23:20.963Z,88560.00
2023-02-21T11:24:21.873Z,88562.00
2023-02-21T11:25:22.067Z,88560.00
2023-02-21T11:26:24.989Z,88558.00
2023-02-21T11:27:21.328Z,88554.00
2023-02-21T11:28:22.352Z,88556.00
2023-02-21T11:29:18.479Z,88552.00
2023-02-21T11:30:20.062Z,88554.00
2023-02-21T11:31:22.198Z,88554.00
2023-02-21T11:32:22.755Z,88554.00
2023-02-21T11:33:19.173Z,88552.00
2023-02-21T11:34:18.794Z,88550.00
2023-02-21T11:35:29.772Z,88548.00
2023-02-21T11:36:20.746Z,88546.00
2023-02-21T11:37:20.845Z,88544.00
2023-02-21T11:38:21.450Z,88542.00
2023-02-21T11:39:21.193Z,88540.00
2023-02-21T11:40:19.179Z,88538.00
2023-02-21T11:41:19.371Z,88536.00
2023-02-21T11:42:18.311Z,88538.00
2023-02-21T11:43:18.236Z,88536.00
2023-02-21T11:44:18.837Z,88532.00
2023-02-21T11:45:17.939Z,88532.00
2023-02-21T11:46:18.090Z,88530.00
2023-02-21T11:47:18.330Z,88526.00
2023-02-21T11:48:19.273Z,88526.00
2023-02-21T11:49:18.346Z,88524.00
2023-02-21T11:50:18.227Z,88524.00
2023-02-21T11:51:18.469Z,88526.00
2023-02-21T11:52:17.943Z,88528.00
2023-02-21T11:53:17.840Z,88526.00
2023-02-21T11:54:17.885Z,88522.00
2023-02-21T11:55:17.968Z,88524.00
2023-02-21T11:56:18.029Z,88518.00
2023-02-21T11:57:18.056Z,88518.00
2023-02-21T11:58:17.990Z,88515.00
2023-02-21T11:59:18.405Z,88509.00
2023-02-21T12:00:17.913Z,88509.00
2023-02-21T12:01:18.756Z,88511.00
2023-02-21T12:02:18.019Z,88509.00
2023-02-21T12:03:17.874Z,88505.00
2023-02-21T12:04:17.865Z,88503.00
2023-02-21T12:05:17.869Z,88501.00
2023-02-21T12:06:19.611Z,88499.00
2023-02-21T12:07:17.868Z,88499.00
2023-02-21T12:08:18.190Z,88497.00
2023-02-21T12:09:18.441Z,88488.00
2023-02-21T12:10:17.648Z,88495.00
2023-02-21T12:11:18.140Z,88488.00
2023-02-21T12:33:17.399Z,88462.00
2023-02-21T12:34:17.455Z,88460.00
2023-02-21T12:35:17.521Z,88458.00
2023-02-21T12:36:17.530Z,88457.00
2023-02-21T12:37:17.561Z,88458.00
2023-02-21T12:38:17.594Z,88457.00
2023-02-21T12:39:17.617Z,88458.00
2023-02-21T12:40:17.683Z,88455.00
2023-02-21T12:50:17.967Z,88447.00
2023-02-21T12:51:18.058Z,88447.00
2023-02-21T12:52:18.034Z,88445.00
2023-02-21T12:53:18.091Z,88443.00
2023-02-21T12:54:18.100Z,88445.00
2023-02-21T12:55:18.154Z,88443.00
2023-02-21T12:56:18.303Z,88443.00
2023-02-21T12:57:18.126Z,88441.00
2023-02-21T12:58:18.107Z,88435.00
2023-02-21T12:59:18.068Z,88435.00
2023-02-21T13:00:18.027Z,88435.00
2023-02-21T13:01:21.073Z,88437.00
2023-02-21T13:02:17.986Z,88433.00
2023-02-21T13:03:17.964Z,88431.00
2023-02-21T13:04:17.901Z,88429.00
2023-02-21T13:05:17.888Z,88425.00
2023-02-21T13:06:17.866Z,88425.00
2023-02-21T13:07:17.828Z,88423.00
2023-02-21T13:08:17.811Z,88417.00
2023-02-21T13:09:17.776Z,88417.00
2023-02-21T13:10:17.749Z,88417.00
2023-02-21T13:11:17.755Z,88417.00
2023-02-21T13:12:17.705Z,88415.00
2023-02-21T13:13:17.695Z,88413.00
2023-02-21T13:14:17.673Z,88411.00
2023-02-21T13:15:17.632Z,88413.00
2023-02-21T13:16:17.629Z,88411.00
2023-02-21T13:17:17.542Z,88411.00
2023-02-21T13:18:17.541Z,88413.00
2023-02-21T13:19:17.528Z,88410.00
2023-02-21T13:20:17.447Z,88408.00
2023-02-21T13:21:17.517Z,88408.00
2023-02-21T13:22:17.391Z,88406.00
2023-02-21T13:23:17.387Z,88402.00
2023-02-21T13:24:17.323Z,88402.00
2023-02-21T13:25:17.304Z,88400.00
2023-02-21T13:26:17.269Z,88400.00
2023-02-21T13:27:17.235Z,88400.00
2023-02-21T13:28:17.230Z,88398.00
2023-02-21T13:29:17.181Z,88392.00
2023-02-21T13:30:17.172Z,88394.00
2023-02-21T13:31:17.452Z,88392.00
2023-02-21T13:32:17.232Z,88394.00
2023-02-21T13:33:17.074Z,88392.00
2023-02-21T13:34:17.010Z,88392.00
2023-02-21T13:35:16.991Z,88392.00
2023-02-21T13:36:16.919Z,88390.00
2023-02-21T13:37:16.890Z,88390.00
2023-02-21T13:38:16.888Z,88388.00
2023-02-21T13:39:16.844Z,88388.00
2023-02-21T13:40:16.793Z,88386.00
2023-02-21T13:41:17.239Z,88388.00
2023-02-21T13:42:16.754Z,88386.00
2023-02-21T13:43:16.710Z,88384.00
2023-02-21T13:44:16.724Z,88384.00
2023-02-21T13:45:16.668Z,88384.00
2023-02-21T13:46:16.755Z,88386.00
2023-02-21T13:47:16.638Z,88380.00
2023-02-21T13:48:16.563Z,88382.00
2023-02-21T13:49:16.540Z,88380.00
2023-02-21T13:50:16.500Z,88382.00
2023-02-21T13:51:16.658Z,88380.00
2023-02-21T13:52:16.433Z,88378.00
2023-02-21T13:53:16.430Z,88378.00
2023-02-21T13:54:16.373Z,88378.00
2023-02-21T13:55:16.371Z,88378.00
2023-02-21T13:56:16.346Z,88378.00
2023-02-21T13:57:16.352Z,88378.00
2023-02-21T13:58:16.319Z,88376.00
2023-02-21T13:59:16.270Z,88376.00
2023-02-21T14:00:16.250Z,88376.00
2023-02-21T14:01:16.175Z,88374.00
2023-02-21T14:02:16.147Z,88374.00
2023-02-21T14:03:16.119Z,88376.00
2023-02-21T14:04:16.113Z,88372.00
2023-02-21T14:05:16.053Z,88372.00
2023-02-21T14:06:16.234Z,88372.00
2023-02-21T14:07:15.990Z,88372.00
2023-02-21T14:08:15.958Z,88370.00
2023-02-21T14:09:15.956Z,88368.00
2023-02-21T14:10:15.927Z,88368.00
2023-02-21T14:11:15.881Z,88366.00
2023-02-21T14:12:15.864Z,88364.00
2023-02-21T14:13:15.825Z,88364.00
2023-02-21T14:14:15.819Z,88366.00
2023-02-21T14:15:15.793Z,88364.00
2023-02-21T14:16:16.167Z,88364.00
2023-02-21T14:17:15.712Z,88362.00
2023-02-21T14:18:15.690Z,88364.00
2023-02-21T14:19:15.705Z,88362.00
2023-02-21T14:20:15.645Z,88360.00
2023-02-21T14:21:15.927Z,88362.00
2023-02-21T14:22:15.631Z,88362.00
2023-02-21T14:23:15.594Z,88360.00
2023-02-21T14:24:15.555Z,88364.00
2023-02-21T14:25:15.540Z,88362.00
2023-02-21T14:26:15.708Z,88358.00
2023-02-21T14:27:15.489Z,88358.00
2023-02-21T14:28:15.429Z,88362.00
2023-02-21T14:29:15.451Z,88360.00
2023-02-21T14:30:15.519Z,88360.00
2023-02-21T14:31:15.794Z,88360.00
2023-02-21T14:32:15.412Z,88358.00
2023-02-21T14:33:16.037Z,88358.00
2023-02-21T14:34:15.305Z,88360.00
2023-02-21T14:35:15.312Z,88358.00
2023-02-21T14:36:15.308Z,88360.00
2023-02-21T14:37:15.245Z,88362.00
2023-02-21T14:38:15.199Z,88358.00
2023-02-21T14:39:15.186Z,88358.00
2023-02-21T14:40:15.172Z,88358.00
2023-02-21T14:41:15.414Z,88358.00
2023-02-21T14:42:15.183Z,88358.00
2023-02-21T14:43:15.244Z,88358.00
2023-02-21T14:44:15.256Z,88358.00
2023-02-21T14:45:15.320Z,88356.00
2023-02-21T14:46:15.305Z,88360.00
2023-02-21T14:47:15.337Z,88356.00
2023-02-21T14:48:15.364Z,88355.00
2023-02-21T14:49:17.323Z,88356.00
2023-02-21T14:50:15.373Z,88358.00
2023-02-21T14:51:15.642Z,88356.00
2023-02-21T14:52:15.298Z,88356.00
2023-02-21T14:53:15.255Z,88355.00
2023-02-21T14:54:15.246Z,88355.00
2023-02-21T14:55:15.220Z,88356.00
2023-02-21T14:56:15.196Z,88355.00
2023-02-21T14:57:15.138Z,88355.00
2023-02-21T14:58:15.098Z,88351.00
2023-02-21T14:59:15.070Z,88355.00
2023-02-21T15:00:15.062Z,88353.00
2023-02-21T15:01:15.429Z,88353.00
2023-02-21T15:02:14.977Z,88351.00
2023-02-21T15:03:14.970Z,88353.00
2023-02-21T15:04:15.017Z,88351.00
2023-02-21T15:05:14.903Z,88351.00
2023-02-21T15:06:14.883Z,88351.00
2023-02-21T15:07:14.832Z,88353.00
2023-02-21T15:08:14.795Z,88349.00
2023-02-21T15:09:14.801Z,88349.00